ココス (キーリング) 諸島 の空港の天気 - METARとTAF

ココス島国際空港 ( YPCC / CCK ) - ココス諸島 ココス (キーリング) 諸島
飛行場実況気象(Metar)
観測時間08/18 19:02 CCT (08/18 12:32 UTC)
風向・風速東南東 8m/s
視程10km以上
天気現象
全天の4割程度の雲 雲底高度 240m
全天の8割程度の雲 雲底高度 430m
全天を覆う雲 雲底高度 2260m
気温25℃
湿度94%
気圧1012hPa
METARYPCC 181232Z AUTO 12015KT 9999 // SCT008 BKN014 OVC074 25/24 Q1012
過去の天気等 Google飛行場航空写真 Wunderground天気予報

過去48時間のMETAR

飛行場予報(TAF)
発表時間: 8/18 17:36 CCT (8/18 11:06 UTC)
予報対象時間: 18日18時 CCT ~ 19日18時 CCT
風向・風速南東 11m/s
視程10km以上
全天の4割程度の雲 雲底高度 550m
TAF YPCC 181106Z 1812/1912 13022KT 9999 SCT018 INTER 1812/1908 13022G32KT 2000 SHRA BKN010